EDT,Max TemperatureF,Mean TemperatureF,Min TemperatureF,Max Dew PointF,MeanDew PointF,Min DewpointF,Max Humidity, Mean Humidity, Min Humidity, Max Sea Level PressureIn, Mean Sea Level PressureIn, Min Sea Level PressureIn, Max VisibilityMiles, Mean VisibilityMiles, Min VisibilityMiles, Max Wind SpeedMPH, Mean Wind SpeedMPH, Max Gust SpeedMPH,PrecipitationIn, CloudCover, Events, WindDirDegrees
2013-7-1,73,71,69,72,71,70,100,97,94,30.11,30.05,29.99,7,4,0,12,8,,0.00,7,Fog-Rain,204
2013-7-2,73,72,71,72,71,70,100,94,88,30.28,30.20,30.17,8,7,4,14,11,,0.00,6,,217
2013-7-3,75,74,73,73,72,72,94,93,89,30.28,30.26,30.23,10,8,3,17,13,,0.00,6,,225
2013-7-4,91,82,73,75,73,72,94,84,52,30.27,30.24,30.19,10,9,4,18,11,,0.00,2,,227
2013-7-5,82,78,73,75,73,72,94,85,79,30.24,30.17,30.13,10,10,10,16,12,,0.00,0,,230
2013-7-6,86,82,77,75,74,68,84,75,55,30.14,30.07,30.03,10,10,10,16,10,,0.00,0,,227
2013-7-7,86,80,75,75,74,72,94,79,70,30.06,30.01,29.96,10,10,10,17,10,,0.00,0,,231
2013-7-8,82,78,75,73,72,70,83,76,70,30.03,30.02,30.00,10,10,10,16,12,,0.00,1,,247
2013-7-9,78,76,73,73,72,72,100,90,78,30.08,30.06,30.04,10,6,1,12,7,,0.00,5,,222
2013-7-10,77,74,71,73,73,72,100,92,83,30.02,29.93,29.85,10,6,3,17,9,,0.00,5,,224
2013-7-11,77,74,71,73,72,72,100,94,89,29.93,29.89,29.87,10,7,6,14,8,24,0.00,5,Rain,232
2013-7-12,75,72,68,70,68,66,94,88,78,30.18,30.06,30.01,10,10,8,14,10,,0.00,8,,70
2013-7-13,75,72,69,73,71,70,100,98,94,30.30,30.28,30.22,10,4,0,9,3,,0.00,8,Fog-Rain,110
2013-7-14,86,80,73,75,74,72,100,84,66,30.34,30.29,30.25,10,9,0,12,9,,0.00,2,Fog,248
2013-7-15,89,81,73,75,73,72,94,73,55,30.23,30.17,30.13,10,10,8,5,1,,0.00,1,,-1
2013-7-16,89,82,75,73,72,70,89,69,52,30.18,30.15,30.12,10,10,10,6,4,,0.00,0,,320
2013-7-17,84,80,75,75,73,70,94,79,66,30.20,30.17,30.09,10,10,10,7,4,,0.00,0,,164
2013-7-18,91,84,77,75,75,73,89,70,55,30.05,30.02,29.99,10,10,10,12,4,,0.00,0,,222
2013-7-19,87,82,78,79,77,75,89,82,75,29.96,29.90,29.83,8,6,5,22,14,,0.00,0,,237
2013-7-20,84,81,77,77,75,73,89,80,70,29.85,29.78,29.74,10,10,10,21,14,26,0.00,1,,232
2013-7-21,78,76,71,70,67,64,94,76,61,29.97,29.96,29.95,10,10,10,14,9,,0.00,1,,126
2013-7-22,77,74,71,73,72,72,100,94,89,29.99,29.94,29.87,10,4,1,10,4,,0.00,8,Rain,108
2013-7-23,80,76,73,75,74,72,100,90,79,29.72,29.65,29.60,10,7,1,17,9,,0.00,5,Rain,230
2013-7-24,86,78,71,75,71,63,94,76,62,29.90,29.75,29.66,10,10,10,14,5,,0.00,2,,310
2013-7-25,64,63,62,61,60,57,94,90,77,30.06,30.04,30.00,10,9,3,14,11,,0.00,8,Rain,26
2013-7-26,69,66,62,66,65,63,100,91,83,30.08,30.01,29.96,10,10,5,13,8,,0.00,5,Rain,334
2013-7-27,75,72,69,70,69,66,94,86,78,30.10,30.07,30.02,10,10,10,14,8,,0.00,2,,217
2013-7-28,77,73,69,70,69,68,100,89,74,30.02,30.01,30.00,10,9,1,15,4,,0.00,4,,202
2013-7-29,78,74,71,73,71,66,100,87,78,30.07,30.03,30.00,10,9,2,12,4,,0.00,3,Rain,200
2013-7-30,77,72,68,61,60,59,78,67,54,30.15,30.14,30.12,10,10,10,18,7,,0.00,0,,312
2013-7-31,77,70,64,64,62,61,94,71,57,30.17,30.13,30.08,10,10,10,13,4,,0.00,2,,210